| time (UTC) | temp F | wind direction | speed knots | gust knots | rain 1hr in | rain 24hr in | rain mn in | humidity % | barometer mb |
| 20260904011339 | 96 | 180 | 1.7 | 11.3 | 0.00 | 0.00 | 0.00 | 37 | 1006.9 |
| 20260904010838 | 97 | 180 | 2.6 | 11.3 | 0.00 | 0.00 | 0.00 | 35 | 1006.9 |
| 20260904010338 | 98 | 158 | 1.7 | 8.7 | 0.00 | 0.00 | 0.00 | 34 | 1006.5 |
| 20260904005839 | 98 | 158 | 0.9 | 3.5 | 0.00 | 0.00 | 0.00 | 34 | 1006.2 |
| 20260904005337 | 98 | 180 | 0.9 | 3.5 | 0.00 | 0.00 | 0.00 | 32 | 1006.5 |
| 20260904004837 | 98 | 203 | 0.9 | 4.3 | 0.00 | 0.00 | 0.00 | 32 | 1006.5 |
| 20260904004608 | 98 | 203 | 0.9 | 5.2 | 0.00 | 0.00 | 0.00 | 31 | 1006.2 |
| 20260904004108 | 98 | 180 | 0.9 | 5.2 | 0.00 | 0.00 | 0.00 | 31 | 1006.2 |
| 20260904003337 | 99 | 180 | 0.9 | 5.2 | 0.00 | 0.00 | 0.00 | 31 | 1006.2 |
| 20260904003109 | 99 | 180 | 0.9 | 5.2 | 0.00 | 0.00 | 0.00 | 31 | 1006.2 |
| 20260904002338 | 99 | 180 | 0.0 | 5.2 | 0.00 | 0.00 | 0.00 | 31 | 1006.2 |
| 20260904001839 | 99 | 180 | 0.9 | 6.1 | 0.00 | 0.00 | 0.00 | 31 | 1006.2 |
| 20260904001609 | 99 | 180 | 0.9 | 6.1 | 0.00 | 0.00 | 0.00 | 31 | 1006.2 |
| 20260904000839 | 99 | 180 | 0.9 | 5.2 | 0.00 | 0.00 | 0.00 | 31 | 1006.2 |
| 20260904000340 | 100 | 203 | 1.7 | 5.2 | 0.00 | 0.00 | 0.00 | 31 | 1006.2 |
| 20260903235837 | 100 | 248 | 0.0 | 3.5 | 0.00 | 0.00 | 0.00 | 31 | 1006.2 |
| 20260903235337 | 100 | 180 | 0.0 | 3.5 | 0.00 | 0.00 | 0.00 | 32 | 1006.2 |
| 20260903234838 | 100 | 90 | 0.9 | 5.2 | 0.00 | 0.00 | 0.00 | 31 | 1006.2 |
| 20260903234338 | 100 | 248 | 0.9 | 5.2 | 0.00 | 0.00 | 0.00 | 31 | 1006.2 |
| 20260903233838 | 100 | 225 | 0.9 | 5.2 | 0.00 | 0.00 | 0.00 | 30 | 1006.2 |
| 20260903233338 | 100 | 248 | 0.0 | 3.5 | 0.00 | 0.00 | 0.00 | 34 | 1006.5 |
| 20260903232838 | 100 | 338 | 0.0 | 3.5 | 0.00 | 0.00 | 0.00 | 31 | 1006.5 |
| 20260903232338 | 100 | 45 | 0.0 | 4.3 | 0.00 | 0.00 | 0.00 | 31 | 1006.5 |
| 20260903231836 | 100 | 203 | 0.9 | 6.1 | 0.00 | 0.00 | 0.00 | 30 | 1006.5 |
| 20260903231337 | 100 | 23 | 0.9 | 6.1 | 0.00 | 0.00 | 0.00 | 30 | 1006.5 |
| 20260903231108 | 101 | 203 | 0.9 | 7.0 | 0.00 | 0.00 | 0.00 | 30 | 1006.5 |
| 20260903230338 | 101 | 135 | 1.7 | 7.0 | 0.00 | 0.00 | 0.00 | 30 | 1006.9 |
| 20260903225837 | 101 | 158 | 0.9 | 7.0 | 0.00 | 0.00 | 0.00 | 30 | 1006.9 |
| 20260903225608 | 101 | 203 | 0.9 | 7.0 | 0.00 | 0.00 | 0.00 | 30 | 1006.9 |
| 20260903224837 | 101 | 225 | 0.9 | 7.0 | 0.00 | 0.00 | 0.00 | 30 | 1006.9 |
| 20260903224609 | 101 | 203 | 0.0 | 3.5 | 0.00 | 0.00 | 0.00 | 31 | 1006.9 |
| 20260903223837 | 101 | 203 | 0.0 | 3.5 | 0.00 | 0.00 | 0.00 | 30 | 1006.9 |
| 20260903223338 | 101 | 90 | 0.9 | 3.5 | 0.00 | 0.00 | 0.00 | 30 | 1007.3 |
| 20260903222836 | 101 | 270 | 0.9 | 3.5 | 0.00 | 0.00 | 0.00 | 30 | 1007.3 |
| 20260903222336 | 101 | 180 | 0.0 | 2.6 | 0.00 | 0.00 | 0.00 | 30 | 1007.3 |
| 20260903221836 | 101 | 180 | 0.0 | 6.1 | 0.00 | 0.00 | 0.00 | 31 | 1007.3 |
| 20260903221337 | 101 | 113 | 1.7 | 6.1 | 0.00 | 0.00 | 0.00 | 30 | 1007.3 |
| 20260903220837 | 101 | 180 | 0.9 | 4.3 | 0.00 | 0.00 | 0.00 | 30 | 1007.6 |
| 20260903220337 | 100 | 180 | 0.9 | 4.3 | 0.00 | 0.00 | 0.00 | 31 | 1007.6 |
| 20260903220109 | 100 | 158 | 0.0 | 1.7 | 0.00 | 0.00 | 0.00 | 30 | 1007.6 |
| 20260903215318 | 100 | 158 | 0.0 | 6.1 | 0.00 | 0.00 | 0.00 | 32 | 1007.6 |
| 20260903214817 | 100 | 203 | 1.7 | 6.1 | 0.00 | 0.00 | 0.00 | 30 | 1008.0 |
| 20260903214317 | 100 | 203 | 1.7 | 7.0 | 0.00 | 0.00 | 0.00 | 30 | 1008.0 |
| 20260903213818 | 100 | 158 | 1.7 | 7.0 | 0.00 | 0.00 | 0.00 | 30 | 1008.3 |
| 20260903213317 | 100 | 270 | 0.9 | 7.8 | 0.00 | 0.00 | 0.00 | 32 | 1008.3 |
| 20260903212817 | 100 | 203 | 1.7 | 7.8 | 0.00 | 0.00 | 0.00 | 30 | 1008.3 |
| 20260903212318 | 100 | 113 | 0.9 | 7.8 | 0.00 | 0.00 | 0.00 | 31 | 1008.3 |
| 20260903211818 | 100 | 158 | 1.7 | 7.8 | 0.00 | 0.00 | 0.00 | 30 | 1008.7 |
| 20260903211549 | 100 | 180 | 0.0 | 5.2 | 0.00 | 0.00 | 0.00 | 30 | 1008.7 |
| 20260903211535 | 99 | 248 | 0.9 | 6.1 | 0.00 | 0.00 | 0.00 | 32 | 1008.7 |
| 20260903210818 | 99 | 203 | 0.9 | 5.2 | 0.00 | 0.00 | 0.00 | 30 | 1008.7 |
| 20260903205817 | 99 | 158 | 1.7 | 8.7 | 0.00 | 0.00 | 0.00 | 31 | 1009.0 |
| 20260903205321 | 99 | 180 | 1.7 | 8.7 | 0.00 | 0.00 | 0.00 | 30 | 1009.0 |
| 20260903205317 | 99 | 180 | 2.6 | 8.7 | 0.00 | 0.00 | 0.00 | 31 | 1009.0 |
| 20260903204317 | 99 | 270 | 0.0 | 3.5 | 0.00 | 0.00 | 0.00 | 34 | 1009.0 |
| 20260903203822 | 99 | 180 | 1.7 | 8.7 | 0.00 | 0.00 | 0.00 | 31 | 1009.3 |
| 20260903203818 | 99 | 158 | 0.9 | 8.7 | 0.00 | 0.00 | 0.00 | 31 | 1009.0 |
| 20260903202818 | 99 | 270 | 1.7 | 7.8 | 0.00 | 0.00 | 0.00 | 30 | 1009.3 |
| 20260903202318 | 99 | 203 | 0.9 | 7.8 | 0.00 | 0.00 | 0.00 | 31 | 1009.3 |
| 20260903201816 | 99 | 248 | 0.9 | 7.0 | 0.00 | 0.00 | 0.00 | 30 | 1009.7 |
| 20260903201547 | 99 | 203 | 1.7 | 7.8 | 0.00 | 0.00 | 0.00 | 31 | 1009.3 |
| 20260903200816 | 99 | 203 | 0.9 | 7.8 | 0.00 | 0.00 | 0.00 | 31 | 1009.7 |
| 20260903200316 | 99 | 203 | 0.9 | 7.0 | 0.00 | 0.00 | 0.00 | 30 | 1009.7 |
| 20260903195817 | 99 | 90 | 0.9 | 5.2 | 0.00 | 0.00 | 0.00 | 30 | 1010.0 |
| 20260903195549 | 99 | 203 | 0.9 | 7.8 | 0.00 | 0.00 | 0.00 | 31 | 1009.7 |
| 20260903194817 | 99 | 158 | 1.7 | 7.8 | 0.00 | 0.00 | 0.00 | 31 | 1010.0 |
| 20260903194317 | 99 | 203 | 0.9 | 7.0 | 0.00 | 0.00 | 0.00 | 32 | 1010.0 |
| 20260903193818 | 98 | 180 | 0.9 | 7.0 | 0.00 | 0.00 | 0.00 | 34 | 1010.0 |
| 20260903193316 | 98 | 203 | 0.9 | 7.0 | 0.00 | 0.00 | 0.00 | 34 | 1010.0 |
| 20260903192816 | 98 | 225 | 0.9 | 7.0 | 0.00 | 0.00 | 0.00 | 34 | 1010.0 |
| 20260903192547 | 98 | 293 | 0.9 | 5.2 | 0.00 | 0.00 | 0.00 | 35 | 1010.5 |
| 20260903191816 | 98 | 135 | 0.9 | 6.1 | 0.00 | 0.00 | 0.00 | 34 | 1010.5 |
| 20260903191316 | 98 | 180 | 1.7 | 6.1 | 0.00 | 0.00 | 0.00 | 35 | 1010.5 |
| 20260903190816 | 98 | 180 | 0.9 | 6.1 | 0.00 | 0.00 | 0.00 | 35 | 1010.5 |
| 20260903190316 | 97 | 203 | 0.0 | 6.1 | 0.00 | 0.00 | 0.00 | 35 | 1010.8 |
| 20260903190047 | 97 | 203 | 0.9 | 7.0 | 0.00 | 0.00 | 0.00 | 37 | 1010.5 |
| 20260903185321 | 97 | 248 | 1.7 | 8.7 | 0.00 | 0.00 | 0.00 | 35 | 1010.8 |
| 20260903185317 | 97 | 158 | 0.9 | 7.0 | 0.00 | 0.00 | 0.00 | 35 | 1010.8 |
| 20260903184547 | 97 | 158 | 1.7 | 8.7 | 0.00 | 0.00 | 0.00 | 35 | 1010.8 |
| 20260903183815 | 98 | 158 | 0.9 | 5.2 | 0.00 | 0.00 | 0.00 | 37 | 1011.1 |
| 20260903183315 | 98 | 203 | 0.9 | 5.2 | 0.00 | 0.00 | 0.00 | 37 | 1011.1 |
| 20260903182815 | 97 | 23 | 0.9 | 5.2 | 0.00 | 0.00 | 0.00 | 37 | 1011.1 |
| 20260903182316 | 97 | 203 | 0.9 | 7.0 | 0.00 | 0.00 | 0.00 | 37 | 1011.1 |
| 20260903181816 | 97 | 270 | 0.9 | 7.0 | 0.00 | 0.00 | 0.00 | 37 | 1011.5 |
| 20260903181315 | 97 | 225 | 0.9 | 5.2 | 0.00 | 0.00 | 0.00 | 35 | 1011.1 |
| 20260903180815 | 96 | 180 | 0.9 | 5.2 | 0.00 | 0.00 | 0.00 | 37 | 1011.5 |
| 20260903180315 | 96 | 203 | 0.9 | 5.2 | 0.00 | 0.00 | 0.00 | 39 | 1011.8 |
| 20260903180046 | 96 | 180 | 0.0 | 3.5 | 0.00 | 0.00 | 0.00 | 40 | 1011.8 |
| 20260903175314 | 96 | 113 | 0.9 | 3.5 | 0.00 | 0.00 | 0.00 | 40 | 1011.5 |
| 20260903174815 | 95 | 248 | 0.9 | 3.5 | 0.00 | 0.00 | 0.00 | 40 | 1011.8 |
| 20260903174314 | 95 | 113 | 0.0 | 7.0 | 0.00 | 0.00 | 0.00 | 40 | 1011.8 |
| 20260903173815 | 95 | 158 | 0.9 | 7.0 | 0.00 | 0.00 | 0.00 | 40 | 1011.8 |
| 20260903173316 | 94 | 135 | 0.9 | 5.2 | 0.00 | 0.00 | 0.00 | 40 | 1011.8 |
| 20260903172815 | 94 | 45 | 0.9 | 5.2 | 0.00 | 0.00 | 0.00 | 40 | 1012.1 |
| 20260903172315 | 94 | 248 | 0.9 | 6.1 | 0.00 | 0.00 | 0.00 | 41 | 1012.1 |
| 20260903171814 | 94 | 180 | 0.9 | 6.1 | 0.00 | 0.00 | 0.00 | 40 | 1011.8 |
| 20260903171546 | 94 | 158 | 0.9 | 6.1 | 0.00 | 0.00 | 0.00 | 41 | 1011.8 |
| 20260903170814 | 93 | 180 | 0.9 | 7.0 | 0.00 | 0.00 | 0.00 | 41 | 1011.8 |
| 20260903170314 | 93 | 158 | 0.9 | 7.0 | 0.00 | 0.00 | 0.00 | 43 | 1011.8 |
| 20260903170046 | 93 | 180 | 1.7 | 7.0 | 0.00 | 0.00 | 0.00 | 43 | 1012.1 |
| 20260903165315 | 93 | 180 | 0.9 | 6.1 | 0.00 | 0.00 | 0.00 | 43 | 1011.8 |
| 20260903164817 | 93 | 225 | 0.9 | 6.1 | 0.00 | 0.00 | 0.00 | 43 | 1012.1 |
| 20260903164315 | 92 | 113 | 0.9 | 6.1 | 0.00 | 0.00 | 0.00 | 44 | 1012.1 |
| 20260903164047 | 92 | 180 | 0.9 | 4.3 | 0.00 | 0.00 | 0.00 | 45 | 1012.1 |
| 20260903163315 | 92 | 180 | 0.9 | 4.3 | 0.00 | 0.00 | 0.00 | 45 | 1012.1 |
| 20260903162815 | 92 | 180 | 0.9 | 5.2 | 0.00 | 0.00 | 0.00 | 45 | 1012.1 |
| 20260903162314 | 91 | 113 | 1.7 | 5.2 | 0.00 | 0.00 | 0.00 | 45 | 1012.1 |
| 20260903161813 | 91 | 248 | 0.9 | 5.2 | 0.00 | 0.00 | 0.00 | 45 | 1012.1 |
| 20260903161314 | 91 | 225 | 1.7 | 5.2 | 0.00 | 0.00 | 0.00 | 46 | 1012.1 |
| 20260903160815 | 91 | 158 | 0.9 | 3.5 | 0.00 | 0.00 | 0.00 | 48 | 1012.1 |
| 20260903160315 | 90 | 180 | 0.9 | 5.2 | 0.00 | 0.00 | 0.00 | 46 | 1012.1 |
| 20260903160045 | 90 | 135 | 0.9 | 5.2 | 0.00 | 0.00 | 0.00 | 48 | 1012.1 |
| 20260903155315 | 90 | 248 | 0.9 | 4.3 | 0.00 | 0.00 | 0.00 | 49 | 1012.1 |
| 20260903154815 | 89 | 135 | 0.9 | 4.3 | 0.00 | 0.00 | 0.00 | 50 | 1012.1 |
| 20260903154314 | 89 | 225 | 0.9 | 5.2 | 0.00 | 0.00 | 0.00 | 50 | 1012.5 |
| 20260903153813 | 89 | 180 | 0.9 | 5.2 | 0.00 | 0.00 | 0.00 | 50 | 1012.5 |
| 20260903153314 | 88 | 180 | 0.9 | 4.3 | 0.00 | 0.00 | 0.00 | 50 | 1012.1 |
| 20260903152814 | 88 | 180 | 0.9 | 4.3 | 0.00 | 0.00 | 0.00 | 53 | 1012.1 |
| 20260903152314 | 88 | 225 | 0.9 | 4.3 | 0.00 | 0.00 | 0.00 | 53 | 1012.5 |
| 20260903151756 | 87 | 158 | 0.9 | 4.3 | 0.00 | 0.00 | 0.00 | 54 | 1012.1 |
| 20260903151256 | 87 | 203 | 0.9 | 6.1 | 0.00 | 0.00 | 0.00 | 54 | 1012.1 |
| 20260903150756 | 87 | 225 | 0.9 | 6.1 | 0.00 | 0.00 | 0.00 | 55 | 1012.1 |
| 20260903150256 | 87 | 203 | 0.9 | 5.2 | 0.00 | 0.00 | 0.00 | 55 | 1012.1 |
| 20260903145755 | 86 | 180 | 0.9 | 6.1 | 0.00 | 0.00 | 0.00 | 55 | 1012.1 |
| 20260903145254 | 86 | 158 | 0.9 | 6.1 | 0.00 | 0.00 | 0.00 | 55 | 1012.1 |
| 20260903144755 | 85 | 225 | 0.9 | 5.2 | 0.00 | 0.00 | 0.00 | 58 | 1012.1 |
| 20260903144254 | 85 | 158 | 1.7 | 5.2 | 0.00 | 0.00 | 0.00 | 58 | 1012.1 |
| 20260903143756 | 85 | 180 | 0.9 | 4.3 | 0.00 | 0.00 | 0.00 | 59 | 1012.1 |
| 20260903143531 | 84 | 270 | 0.0 | 4.3 | 0.00 | 0.00 | 0.00 | 59 | 1012.1 |
| 20260903143255 | 84 | 203 | 0.0 | 2.6 | 0.00 | 0.00 | 0.00 | 59 | 1012.1 |
| 20260903142255 | 84 | 180 | 0.9 | 4.3 | 0.00 | 0.00 | 0.00 | 60 | 1012.1 |
| 20260903141755 | 84 | 203 | 0.0 | 3.5 | 0.00 | 0.00 | 0.00 | 60 | 1011.8 |
| 20260903141255 | 83 | 135 | 0.0 | 2.6 | 0.00 | 0.00 | 0.00 | 61 | 1011.8 |
| 20260903140755 | 83 | 158 | 0.0 | 0.9 | 0.00 | 0.00 | 0.00 | 61 | 1011.8 |
| 20260903140254 | 83 | 203 | 0.0 | 0.9 | 0.00 | 0.00 | 0.00 | 61 | 1011.8 |
| 20260903135754 | 83 | 90 | 0.0 | 0.0 | 0.00 | 0.00 | 0.00 | 61 | 1011.8 |
| 20260903135255 | 83 | 338 | 0.0 | 0.0 | 0.00 | 0.00 | 0.00 | 61 | 1011.8 |
| 20260903134800 | 83 | 90 | 0.0 | 0.0 | 0.00 | 0.00 | 0.00 | 60 | 1011.5 |
| 20260903134755 | 83 | 45 | 0.0 | 0.0 | 0.00 | 0.00 | 0.00 | 61 | 1012.1 |
| 20260903134031 | 83 | 45 | 0.0 | 0.0 | 0.00 | 0.00 | 0.00 | 59 | 1011.5 |
| 20260903133755 | 83 | 45 | 0.0 | 0.0 | 0.00 | 0.00 | 0.00 | 60 | 1011.5 |
| 20260903133025 | 83 | 45 | 0.0 | 0.0 | 0.00 | 0.00 | 0.00 | 59 | 1011.5 |
| 20260903132254 | 83 | 23 | 0.0 | 0.0 | 0.00 | 0.00 | 0.00 | 59 | 1011.1 |
| 20260903131753 | 83 | 23 | 0.0 | 0.0 | 0.00 | 0.00 | 0.00 | 59 | 1011.1 |
| 20260903131525 | 83 | 23 | 0.0 | 0.0 | 0.00 | 0.00 | 0.00 | 59 | 1011.1 |
| 20260903130755 | 83 | 113 | 0.0 | 0.0 | 0.00 | 0.00 | 0.00 | 58 | 1011.1 |
| 20260903130526 | 83 | 180 | 0.0 | 0.0 | 0.00 | 0.00 | 0.00 | 58 | 1011.1 |
| 20260903125755 | 83 | 270 | 0.0 | 0.0 | 0.00 | 0.00 | 0.00 | 58 | 1011.1 |
| 20260903125255 | 83 | 90 | 0.0 | 0.0 | 0.00 | 0.00 | 0.00 | 56 | 1011.1 |
| 20260903124755 | 83 | 293 | 0.0 | 0.0 | 0.00 | 0.00 | 0.00 | 56 | 1011.1 |
| 20260903124255 | 83 | 23 | 0.0 | 0.0 | 0.00 | 0.00 | 0.00 | 56 | 1011.1 |
| 20260903123754 | 83 | 90 | 0.0 | 0.0 | 0.00 | 0.00 | 0.00 | 55 | 1010.8 |
| 20260903123254 | 83 | 90 | 0.0 | 0.0 | 0.00 | 0.00 | 0.00 | 56 | 1011.1 |
| 20260903122754 | 83 | 23 | 0.0 | 0.9 | 0.00 | 0.00 | 0.00 | 55 | 1010.8 |
| 20260903122254 | 83 | 45 | 0.0 | 0.9 | 0.00 | 0.00 | 0.00 | 55 | 1010.8 |
| 20260903121755 | 83 | 270 | 0.0 | 0.9 | 0.00 | 0.00 | 0.00 | 55 | 1010.8 |
| 20260903121255 | 83 | 0 | 0.0 | 0.9 | 0.00 | 0.00 | 0.00 | 54 | 1010.8 |
| 20260903120755 | 83 | 315 | 0.0 | 0.0 | 0.00 | 0.00 | 0.00 | 54 | 1010.8 |
| 20260903120255 | 83 | 270 | 0.0 | 0.0 | 0.00 | 0.00 | 0.00 | 53 | 1010.8 |
| 20260903115756 | 83 | 225 | 0.0 | 0.0 | 0.00 | 0.00 | 0.00 | 53 | 1010.8 |
| 20260903115255 | 83 | 203 | 0.0 | 0.0 | 0.00 | 0.00 | 0.00 | 53 | 1010.8 |
| 20260903114754 | 83 | 180 | 0.0 | 0.0 | 0.00 | 0.00 | 0.00 | 53 | 1010.8 |
| 20260903114256 | 84 | 180 | 0.0 | 0.0 | 0.00 | 0.00 | 0.00 | 53 | 1010.5 |
| 20260903113754 | 84 | 23 | 0.0 | 0.0 | 0.00 | 0.00 | 0.00 | 51 | 1010.5 |
| 20260903113255 | 84 | 23 | 0.0 | 0.0 | 0.00 | 0.00 | 0.00 | 53 | 1010.5 |
| 20260903113027 | 84 | 45 | 0.0 | 0.0 | 0.00 | 0.00 | 0.00 | 51 | 1010.5 |
| 20260903112255 | 84 | 338 | 0.0 | 0.0 | 0.00 | 0.00 | 0.00 | 53 | 1010.5 |
| 20260903111756 | 84 | 0 | 0.0 | 0.0 | 0.00 | 0.00 | 0.00 | 53 | 1010.5 |
| 20260903111255 | 84 | 270 | 0.0 | 0.0 | 0.00 | 0.00 | 0.00 | 50 | 1010.5 |
| 20260903110757 | 84 | 270 | 0.0 | 0.0 | 0.00 | 0.00 | 0.00 | 51 | 1010.0 |
| 20260903110753 | 84 | 0 | 0.0 | 0.0 | 0.00 | 0.00 | 0.00 | 51 | 1010.5 |
| 20260903105754 | 84 | 158 | 0.0 | 0.0 | 0.00 | 0.00 | 0.00 | 50 | 1010.0 |
| 20260903105254 | 84 | 158 | 0.0 | 0.0 | 0.00 | 0.00 | 0.00 | 49 | 1010.5 |
| 20260903105026 | 84 | 180 | 0.0 | 0.9 | 0.00 | 0.00 | 0.00 | 50 | 1010.5 |
| 20260903104257 | 84 | 180 | 0.0 | 1.7 | 0.00 | 0.00 | 0.00 | 49 | 1010.5 |
| 20260903103756 | 84 | 203 | 0.0 | 1.7 | 0.00 | 0.00 | 0.00 | 49 | 1010.5 |
| 20260903103526 | 85 | 203 | 0.0 | 0.0 | 0.00 | 0.00 | 0.00 | 50 | 1010.5 |
| 20260903102757 | 85 | 203 | 0.0 | 0.0 | 0.00 | 0.00 | 0.00 | 50 | 1010.0 |
| 20260903102254 | 85 | 293 | 0.0 | 0.0 | 0.00 | 0.00 | 0.00 | 50 | 1010.5 |
| 20260903101754 | 85 | 45 | 0.0 | 0.0 | 0.00 | 0.00 | 0.00 | 50 | 1010.0 |
| 20260903101254 | 85 | 90 | 0.0 | 0.0 | 0.00 | 0.00 | 0.00 | 50 | 1010.0 |
| 20260903100754 | 85 | 45 | 0.0 | 0.0 | 0.00 | 0.00 | 0.00 | 53 | 1010.0 |
| 20260903100254 | 85 | 23 | 0.0 | 0.0 | 0.00 | 0.00 | 0.00 | 51 | 1010.5 |
| 20260903095755 | 85 | 180 | 0.0 | 0.0 | 0.00 | 0.00 | 0.00 | 51 | 1010.5 |
| 20260903095255 | 85 | 68 | 0.0 | 2.6 | 0.00 | 0.00 | 0.00 | 51 | 1010.0 |
| 20260903094755 | 85 | 68 | 0.0 | 2.6 | 0.00 | 0.00 | 0.00 | 50 | 1010.0 |
| 20260903094526 | 86 | 23 | 0.0 | 0.0 | 0.00 | 0.00 | 0.00 | 50 | 1010.0 |
| 20260903093755 | 86 | 45 | 0.0 | 0.0 | 0.00 | 0.00 | 0.00 | 50 | 1010.5 |
| 20260903093254 | 86 | 68 | 0.0 | 0.0 | 0.00 | 0.00 | 0.00 | 50 | 1010.0 |
| 20260903092754 | 86 | 113 | 0.0 | 0.0 | 0.00 | 0.00 | 0.00 | 50 | 1010.0 |
| 20260903092253 | 87 | 248 | 0.0 | 0.0 | 0.00 | 0.00 | 0.00 | 51 | 1010.0 |
| 20260903091755 | 87 | 315 | 0.0 | 0.0 | 0.00 | 0.00 | 0.00 | 50 | 1010.0 |
| 20260903091255 | 87 | 45 | 0.0 | 0.0 | 0.00 | 0.00 | 0.00 | 50 | 1010.0 |
| 20260903091026 | 87 | 270 | 0.0 | 0.0 | 0.00 | 0.00 | 0.00 | 49 | 1010.0 |
| 20260903090255 | 87 | 270 | 0.0 | 0.0 | 0.00 | 0.00 | 0.00 | 50 | 1010.0 |
| 20260903085755 | 87 | 270 | 0.0 | 0.0 | 0.00 | 0.00 | 0.00 | 50 | 1010.0 |
| 20260903085255 | 87 | 270 | 0.0 | 0.9 | 0.00 | 0.00 | 0.00 | 48 | 1010.0 |
| 20260903084754 | 88 | 270 | 0.0 | 0.9 | 0.00 | 0.00 | 0.00 | 49 | 1010.0 |
| 20260903084524 | 88 | 180 | 0.0 | 0.9 | 0.00 | 0.00 | 0.00 | 48 | 1010.5 |
| 20260903084242 | 88 | 180 | 0.0 | 2.6 | 0.00 | 0.00 | 0.00 | 48 | 1010.5 |
| 20260903084228 | 88 | 225 | 0.0 | 1.7 | 0.00 | 0.00 | 0.00 | 48 | 1010.0 |
| 20260903082755 | 88 | 180 | 0.0 | 2.6 | 0.00 | 0.00 | 0.00 | 48 | 1010.5 |
| 20260903082255 | 88 | 203 | 0.0 | 1.7 | 0.00 | 0.00 | 0.00 | 46 | 1010.0 |
| 20260903081755 | 88 | 180 | 0.0 | 1.7 | 0.00 | 0.00 | 0.00 | 46 | 1010.5 |
| 20260903081255 | 89 | 203 | 0.0 | 0.9 | 0.00 | 0.00 | 0.00 | 46 | 1010.0 |
| 20260903081026 | 89 | 203 | 0.0 | 1.7 | 0.00 | 0.00 | 0.00 | 46 | 1010.0 |
| 20260903080254 | 89 | 203 | 0.0 | 1.7 | 0.00 | 0.00 | 0.00 | 46 | 1010.0 |
| 20260903075754 | 89 | 203 | 0.0 | 0.0 | 0.00 | 0.00 | 0.00 | 46 | 1010.0 |
| 20260903075254 | 89 | 203 | 0.0 | 0.9 | 0.00 | 0.00 | 0.00 | 46 | 1010.0 |
| 20260903075026 | 89 | 203 | 0.0 | 1.7 | 0.00 | 0.00 | 0.00 | 45 | 1010.0 |
| 20260903074255 | 89 | 180 | 0.0 | 1.7 | 0.00 | 0.00 | 0.00 | 45 | 1010.0 |
| 20260903073756 | 89 | 180 | 0.0 | 0.9 | 0.00 | 0.00 | 0.00 | 45 | 1010.0 |
| 20260903073526 | 89 | 203 | 0.0 | 1.7 | 0.00 | 0.00 | 0.00 | 45 | 1010.0 |
| 20260903072755 | 90 | 270 | 0.0 | 2.6 | 0.00 | 0.00 | 0.00 | 45 | 1010.0 |
| 20260903072525 | 90 | 248 | 0.0 | 2.6 | 0.00 | 0.00 | 0.00 | 45 | 1010.0 |
| 20260903072025 | 90 | 270 | 0.0 | 0.9 | 0.00 | 0.00 | 0.00 | 45 | 1010.0 |
| 20260903071255 | 90 | 270 | 0.0 | 6.1 | 0.00 | 0.00 | 0.00 | 45 | 1010.5 |
| 20260903070754 | 90 | 270 | 0.0 | 6.1 | 0.00 | 0.00 | 0.00 | 45 | 1010.5 |
| 20260903070253 | 90 | 180 | 0.0 | 3.5 | 0.00 | 0.00 | 0.00 | 45 | 1010.5 |
| 20260903070025 | 90 | 203 | 0.9 | 3.5 | 0.00 | 0.00 | 0.00 | 44 | 1010.5 |
| 20260903065255 | 90 | 203 | 0.9 | 2.6 | 0.00 | 0.00 | 0.00 | 44 | 1010.0 |
| 20260903064755 | 90 | 180 | 0.9 | 3.5 | 0.00 | 0.00 | 0.00 | 44 | 1010.0 |
| 20260903064254 | 90 | 180 | 0.9 | 3.5 | 0.00 | 0.00 | 0.00 | 44 | 1010.0 |
| 20260903063755 | 90 | 225 | 0.0 | 0.0 | 0.00 | 0.00 | 0.00 | 44 | 1009.7 |
| 20260903063255 | 91 | 248 | 0.0 | 0.0 | 0.00 | 0.00 | 0.00 | 44 | 1010.0 |
| 20260903062753 | 91 | 248 | 0.0 | 0.0 | 0.00 | 0.00 | 0.00 | 43 | 1009.7 |
| 20260903062254 | 91 | 248 | 0.0 | 0.0 | 0.00 | 0.00 | 0.00 | 41 | 1009.7 |
| 20260903061753 | 91 | 270 | 0.0 | 0.0 | 0.00 | 0.00 | 0.00 | 44 | 1009.7 |
| 20260903061254 | 91 | 203 | 0.0 | 0.0 | 0.00 | 0.00 | 0.00 | 43 | 1010.0 |
| 20260903060754 | 91 | 203 | 0.0 | 0.0 | 0.00 | 0.00 | 0.00 | 43 | 1010.0 |
| 20260903060255 | 92 | 225 | 0.0 | 0.0 | 0.00 | 0.00 | 0.00 | 43 | 1009.7 |
| 20260903055755 | 92 | 225 | 0.0 | 0.0 | 0.00 | 0.00 | 0.00 | 43 | 1009.7 |
| 20260903055525 | 92 | 203 | 0.0 | 0.9 | 0.00 | 0.00 | 0.00 | 40 | 1009.7 |
| 20260903055025 | 92 | 203 | 0.0 | 0.9 | 0.00 | 0.00 | 0.00 | 40 | 1010.0 |
| 20260903054254 | 92 | 203 | 0.0 | 0.9 | 0.00 | 0.00 | 0.00 | 40 | 1009.7 |
| 20260903053755 | 93 | 225 | 0.0 | 0.9 | 0.00 | 0.00 | 0.00 | 40 | 1010.0 |
| 20260903053254 | 93 | 225 | 0.0 | 0.9 | 0.00 | 0.00 | 0.00 | 39 | 1009.7 |
| 20260903052754 | 93 | 203 | 0.0 | 0.0 | 0.00 | 0.00 | 0.00 | 39 | 1009.7 |
| 20260903052254 | 93 | 203 | 0.0 | 0.0 | 0.00 | 0.00 | 0.00 | 37 | 1010.0 |
| 20260903051755 | 93 | 225 | 0.0 | 0.9 | 0.00 | 0.00 | 0.00 | 37 | 1009.7 |
| 20260903051255 | 93 | 225 | 0.0 | 0.9 | 0.00 | 0.00 | 0.00 | 37 | 1010.0 |
| 20260903050755 | 93 | 225 | 0.0 | 2.6 | 0.00 | 0.00 | 0.00 | 37 | 1010.0 |
| 20260903050255 | 93 | 225 | 0.0 | 2.6 | 0.00 | 0.00 | 0.00 | 37 | 1009.7 |
| 20260903045753 | 94 | 203 | 0.0 | 1.7 | 0.00 | 0.00 | 0.00 | 37 | 1009.7 |
| 20260903045253 | 94 | 203 | 0.0 | 1.7 | 0.00 | 0.00 | 0.00 | 37 | 1009.7 |
| 20260903044754 | 94 | 225 | 0.0 | 2.6 | 0.00 | 0.00 | 0.00 | 37 | 1009.7 |
| 20260903044524 | 94 | 203 | 0.0 | 2.6 | 0.00 | 0.00 | 0.00 | 37 | 1009.3 |
| 20260903043755 | 94 | 225 | 0.0 | 2.6 | 0.00 | 0.00 | 0.00 | 35 | 1009.7 |
| 20260903043255 | 94 | 225 | 0.0 | 1.7 | 0.00 | 0.00 | 0.00 | 35 | 1009.7 |
| 20260903042755 | 94 | 270 | 0.0 | 1.7 | 0.00 | 0.00 | 0.00 | 37 | 1009.7 |
| 20260903042254 | 94 | 270 | 0.0 | 0.9 | 0.00 | 0.00 | 0.00 | 35 | 1009.7 |
| 20260903041755 | 94 | 203 | 0.0 | 0.9 | 0.00 | 0.00 | 0.00 | 37 | 1009.7 |
| 20260903041254 | 94 | 225 | 0.0 | 2.6 | 0.00 | 0.00 | 0.00 | 37 | 1009.7 |
| 20260903040754 | 94 | 248 | 0.0 | 3.5 | 0.00 | 0.00 | 0.00 | 35 | 1009.7 |
| 20260903040524 | 94 | 270 | 0.0 | 3.5 | 0.00 | 0.00 | 0.00 | 35 | 1009.7 |
| 20260903035754 | 94 | 248 | 0.0 | 2.6 | 0.00 | 0.00 | 0.00 | 37 | 1009.7 |
| 20260903035254 | 94 | 293 | 0.0 | 3.5 | 0.00 | 0.00 | 0.00 | 35 | 1009.3 |
| 20260903034754 | 94 | 270 | 0.0 | 3.5 | 0.00 | 0.00 | 0.00 | 35 | 1009.3 |
| 20260903034255 | 95 | 270 | 0.0 | 2.6 | 0.00 | 0.00 | 0.00 | 35 | 1009.3 |
| 20260903033755 | 95 | 270 | 0.0 | 2.6 | 0.00 | 0.00 | 0.00 | 35 | 1009.7 |
| 20260903033254 | 95 | 270 | 0.0 | 2.6 | 0.00 | 0.00 | 0.00 | 35 | 1009.3 |
| 20260903033026 | 95 | 270 | 0.0 | 3.5 | 0.00 | 0.00 | 0.00 | 35 | 1009.0 |
| 20260903032253 | 95 | 270 | 0.0 | 3.5 | 0.00 | 0.00 | 0.00 | 35 | 1009.3 |
| 20260903031753 | 95 | 315 | 0.0 | 4.3 | 0.00 | 0.00 | 0.00 | 35 | 1009.0 |
| 20260903031525 | 95 | 338 | 0.9 | 4.3 | 0.00 | 0.00 | 0.00 | 35 | 1009.0 |
| 20260903031025 | 96 | 0 | 0.0 | 3.5 | 0.00 | 0.00 | 0.00 | 35 | 1008.7 |
| 20260903030255 | 96 | 270 | 0.9 | 3.5 | 0.00 | 0.00 | 0.00 | 35 | 1009.0 |
| 20260903025754 | 96 | 225 | 0.0 | 3.5 | 0.00 | 0.00 | 0.00 | 34 | 1009.0 |
| 20260903025254 | 96 | 293 | 0.0 | 3.5 | 0.00 | 0.00 | 0.00 | 32 | 1009.0 |
| 20260903025026 | 96 | 315 | 0.0 | 3.5 | 0.00 | 0.00 | 0.00 | 32 | 1008.7 |
| 20260903024254 | 96 | 270 | 0.0 | 3.5 | 0.00 | 0.00 | 0.00 | 32 | 1008.7 |
| 20260903023753 | 96 | 248 | 0.9 | 4.3 | 0.00 | 0.00 | 0.00 | 31 | 1008.7 |
| 20260903023253 | 96 | 270 | 0.9 | 4.3 | 0.00 | 0.00 | 0.00 | 31 | 1008.7 |
| 20260903022753 | 97 | 248 | 0.0 | 4.3 | 0.00 | 0.00 | 0.00 | 31 | 1008.3 |
| 20260903022253 | 97 | 203 | 0.0 | 2.6 | 0.00 | 0.00 | 0.00 | 32 | 1008.3 |
| 20260903021754 | 97 | 248 | 0.0 | 1.7 | 0.00 | 0.00 | 0.00 | 32 | 1008.3 |
| 20260903021254 | 97 | 293 | 0.0 | 5.2 | 0.00 | 0.00 | 0.00 | 34 | 1008.3 |
| 20260903020755 | 97 | 270 | 0.9 | 5.2 | 0.00 | 0.00 | 0.00 | 32 | 1008.3 |
| 20260903020254 | 97 | 270 | 0.9 | 4.3 | 0.00 | 0.00 | 0.00 | 32 | 1008.3 |
| 20260903015754 | 98 | 270 | 0.9 | 4.3 | 0.00 | 0.00 | 0.00 | 31 | 1008.3 |
| 20260903015253 | 98 | 180 | 0.9 | 4.3 | 0.00 | 0.00 | 0.00 | 31 | 1008.3 |
| 20260903014758 | 98 | 225 | 0.0 | 4.3 | 0.00 | 0.00 | 0.00 | 31 | 1008.3 |
| 20260903014253 | 98 | 270 | 0.9 | 4.3 | 0.00 | 0.00 | 0.00 | 31 | 1008.0 |
| 20260903013753 | 98 | 270 | 0.0 | 4.3 | 0.00 | 0.00 | 0.00 | 30 | 1008.0 |
| 20260903013253 | 98 | 270 | 0.9 | 5.2 | 0.00 | 0.00 | 0.00 | 30 | 1008.0 |
| 20260903012754 | 99 | 180 | 0.9 | 5.2 | 0.00 | 0.00 | 0.00 | 30 | 1008.0 |
| 20260903012255 | 99 | 248 | 0.9 | 4.3 | 0.00 | 0.00 | 0.00 | 30 | 1008.0 |
| 20260903011754 | 99 | 270 | 0.9 | 4.3 | 0.00 | 0.00 | 0.00 | 30 | 1008.0 |